Share

Mashhad, Iran

5:38 PM IRDT on April 23, 2014 (GMT +0430)
Shahid Hashemi Nejad International (OIMM) Elev 3278 ft | 36.27 °N, 59.63 °E | Change Station

Current weather conditions updated 8 minutes ago

Scattered Clouds
Scattered Clouds
70 °F
Feels Like 70 °F
N
12
Wind Variable Wind from NNW
Sunrise 5:48 AM
Sunset 7:11 PM
Moon Last Quarter

Tomorrow is forecast to be nearly the same temperature as today. Showers and thunderstorms late.

Pressure 29.95 in
Visibility 6.2 miles
Clouds Few 4000 ft
Scattered Clouds 5000 ft
Scattered Clouds 19000 ft
Dew Point 54 °F
Humidity 56%
Rainfall 0.00 in
Snow Depth Not available.
UV 1 out of 16
Pollen Not available.
Air Quality Not available.
Flu Activity Not available.
METAR OIMM 231300Z 34010KT 9999 FEW040CB SCT050 SCT190 21/12 Q1014 A2995

More Conditions Fewer Conditions

Pressure 29.95 in
Visibility 6.2 miles
Clouds Few 4000 ft
Scattered Clouds 5000 ft
Scattered Clouds 19000 ft
Dew Point 54 °F
Humidity 56%
Rainfall 0.00 in
Snow Depth Not available.
UV 1 out of 16
Pollen Not available.
Air Quality Not available.
Flu Activity Not available.
METAR OIMM 231300Z 34010KT 9999 FEW040CB SCT050 SCT190 21/12 Q1014 A2995

More Conditions Fewer Conditions

10-Day Weather Forecast

Almanac

Astronomy

Apr. 23, 2014 Rise Set
Actual Time 5:48 AM IRDT 7:11 PM IRDT
Civil Twilight 5:21 AM IRDT 7:39 PM IRDT
Nautical Twilight 4:49 AM IRDT 8:11 PM IRDT
Astronomical Twilight 4:15 AM IRDT 8:45 PM IRDT
Moon 1:51 AM IRDT 1:03 PM IRDT
Length of Visible Light 14h 17m
Length of Day
13h 23m
Tomorrow will be 2m 6s longer.
Last Quarter, 36% of the Moon is Illuminated
Today
Last Quarter
Apr 29
New
May 6
First Quarter
May 14
Full
May 21
Last Quarter

Yesterday's Extremes

Country Highs Country Lows

Community

  • Earth Day Spectrum Ove' Blue
    Earth Day Spectrum Ove' Blue
  • April Sunset
    April Sunset
  • Waiting..
    Waiting..
  • Sunset...
    Sunset...
  • Happy outdoor day
    Happy outdoor day

WunderPhotos

Upload Photos

1,704,256 photos uploaded!

Nearby

Snow Depth

Not available.

Coastal Water Temperatures

Place Temperature
No Stations Reporting

Earthquake Activity

City Distance Mag. Time & Date
No recent earthquake activity has been reported nearby.
Minimum magnitude displayed is 2.5.

Nearby Weather Stations

There are no personal weather stations in this area.

What do you think?

We're not finished. Please let us know what you like, what you don't like, and what you are still missing.